Time;durP1;ratioP1;P1;durP2;ratioP2;P2;SDS_P1;SDS_P2;PMS_P1;PMS_P2;Temp;Humidity;BMP_temperature;BMP_pressure;BME280_temperature;BME280_humidity;BME280_pressure;Samples;Min_cycle;Max_cycle;Signal;HPM_P1;HPM_P2
2022/09/28 00:00:07;;;;;;;5.43;2.38;;;9.70;99.90;;;;;;5054228;28;20198;-54
2022/09/28 00:02:38;;;;;;;2.97;1.75;;;9.70;99.90;;;;;;5055377;28;20257;-55
2022/09/28 00:05:04;;;;;;;7.10;1.70;;;9.70;99.90;;;;;;5021612;28;20551;-52
2022/09/28 00:07:29;;;;;;;8.85;2.42;;;9.70;99.90;;;;;;5035985;28;20175;-55
2022/09/28 00:09:55;;;;;;;8.10;2.50;;;9.70;99.90;;;;;;5020735;28;20577;-54
2022/09/28 00:12:22;;;;;;;8.00;2.13;;;9.60;99.90;;;;;;5055520;28;20187;-54
2022/09/28 00:14:48;;;;;;;7.40;2.33;;;9.60;99.90;;;;;;5056022;28;20186;-55
2022/09/28 00:17:15;;;;;;;5.80;2.38;;;9.70;99.90;;;;;;5037906;28;20270;-54
2022/09/28 00:19:42;;;;;;;8.60;2.85;;;9.60;99.90;;;;;;5042250;28;20216;-56
2022/09/28 00:22:08;;;;;;;7.03;2.08;;;9.60;99.90;;;;;;5051726;28;20182;-55
2022/09/28 00:24:34;;;;;;;5.38;2.15;;;9.60;99.90;;;;;;5054713;28;20183;-56
2022/09/28 00:27:01;;;;;;;7.10;2.30;;;9.60;99.90;;;;;;5037629;28;20186;-55
2022/09/28 00:29:32;;;;;;;7.55;2.05;;;9.60;99.90;;;;;;5051633;28;20573;-56
2022/09/28 00:32:08;;;;;;;10.18;3.33;;;9.60;99.90;;;;;;5037358;28;20187;-51
2022/09/28 00:34:37;;;;;;;8.00;2.28;;;9.60;99.90;;;;;;5055544;28;20175;-54
2022/09/28 00:37:05;;;;;;;7.18;2.20;;;9.60;99.90;;;;;;5055361;28;20179;-56
2022/09/28 00:39:31;;;;;;;11.70;2.30;;;9.60;99.90;;;;;;5051490;28;20187;-57
2022/09/28 00:41:57;;;;;;;9.05;2.17;;;9.60;99.90;;;;;;5031168;28;20635;-55
2022/09/28 00:44:29;;;;;;;6.70;2.33;;;9.60;99.90;;;;;;5061078;28;20182;-54
2022/09/28 00:47:19;;;;;;;6.25;2.40;;;9.60;99.90;;;;;;5044561;28;20171;-55
2022/09/28 00:50:00;;;;;;;8.55;2.05;;;9.60;99.90;;;;;;5053575;28;20284;-55
2022/09/28 00:52:34;;;;;;;9.85;2.42;;;9.60;99.90;;;;;;5018153;28;20270;-54
2022/09/28 00:55:05;;;;;;;9.55;2.63;;;9.60;99.90;;;;;;5036588;28;20241;-52
2022/09/28 00:57:32;;;;;;;5.68;2.22;;;9.70;99.90;;;;;;5020705;28;20635;-54
2022/09/28 00:59:59;;;;;;;4.85;2.33;;;9.70;99.90;;;;;;5037010;28;20191;-54
2022/09/28 01:02:25;;;;;;;6.30;2.50;;;9.70;99.90;;;;;;5035929;28;20726;-53
2022/09/28 01:04:52;;;;;;;7.15;2.70;;;9.60;99.90;;;;;;5055381;28;20266;-55
2022/09/28 01:07:18;;;;;;;6.32;2.30;;;9.70;99.90;;;;;;5037231;28;20556;-55
2022/09/28 01:09:45;;;;;;;8.45;2.03;;;9.70;99.90;;;;;;5036306;28;20199;-55
2022/09/28 01:12:10;;;;;;;4.20;1.60;;;9.60;99.90;;;;;;5018879;28;20194;-53
2022/09/28 01:14:38;;;;;;;6.07;1.90;;;9.70;99.90;;;;;;5036836;28;20631;-54
2022/09/28 01:17:14;;;;;;;6.00;1.58;;;9.60;99.90;;;;;;5035357;28;20222;-54
2022/09/28 01:20:20;;;;;;;9.05;1.65;;;9.60;99.90;;;;;;5036170;28;20229;-56
2022/09/28 01:23:01;;;;;;;3.80;1.48;;;9.60;99.90;;;;;;4988888;28;20199;-55
2022/09/28 01:26:05;;;;;;;4.00;1.60;;;9.60;99.90;;;;;;5035077;28;20183;-55
2022/09/28 01:28:31;;;;;;;7.10;1.42;;;9.60;99.90;;;;;;5050684;28;20262;-56
2022/09/28 01:31:12;;;;;;;7.82;1.45;;;9.60;99.90;;;;;;5054370;28;20600;-56
2022/09/28 01:33:49;;;;;;;4.00;1.23;;;9.60;99.90;;;;;;5038999;28;20188;-56
2022/09/28 01:36:42;;;;;;;6.57;1.13;;;9.60;99.90;;;;;;5022549;28;20171;-54
2022/09/28 01:39:13;;;;;;;4.15;1.50;;;9.60;99.90;;;;;;5036440;28;20223;-55
2022/09/28 01:41:41;;;;;;;9.23;1.40;;;9.60;99.90;;;;;;5045728;28;20198;-56
2022/09/28 01:44:11;;;;;;;4.68;1.40;;;9.60;99.90;;;;;;5044082;28;20322;-53
2022/09/28 01:46:45;;;;;;;4.50;1.30;;;9.60;99.90;;;;;;5045482;28;20171;-54
2022/09/28 01:49:26;;;;;;;12.25;1.67;;;9.60;99.90;;;;;;5036658;28;20237;-54
2022/09/28 01:52:06;;;;;;;6.88;1.42;;;9.70;99.90;;;;;;5040492;28;20188;-54
2022/09/28 01:54:43;;;;;;;7.57;1.20;;;9.70;99.90;;;;;;5040260;28;20270;-55
2022/09/28 01:57:23;;;;;;;6.13;1.50;;;9.70;99.90;;;;;;5036344;28;20691;-54
2022/09/28 02:00:11;;;;;;;2.58;1.42;;;9.70;99.90;;;;;;5035771;28;20271;-55
2022/09/28 02:02:58;;;;;;;5.45;1.30;;;9.70;99.90;;;;;;5054064;28;20230;-53
2022/09/28 02:05:37;;;;;;;6.38;1.60;;;9.70;99.90;;;;;;5035145;28;20183;-56
2022/09/28 02:08:06;;;;;;;4.93;1.40;;;9.70;99.90;;;;;;5035113;28;20183;-54
2022/09/28 02:10:42;;;;;;;3.58;1.50;;;9.70;99.90;;;;;;5020057;28;20230;-56
2022/09/28 02:13:21;;;;;;;5.25;1.65;;;9.80;99.90;;;;;;5036355;28;20179;-55
2022/09/28 02:15:55;;;;;;;6.50;1.80;;;9.80;99.90;;;;;;5030517;28;20183;-54
2022/09/28 02:18:21;;;;;;;3.13;1.73;;;9.80;99.90;;;;;;5035580;28;20175;-54
2022/09/28 02:20:55;;;;;;;6.00;1.70;;;9.80;99.90;;;;;;5053717;28;20255;-55
2022/09/28 02:23:25;;;;;;;2.30;1.70;;;9.80;99.90;;;;;;5035433;28;20583;-56
2022/09/28 02:26:00;;;;;;;8.55;1.73;;;9.80;99.90;;;;;;5029980;28;20584;-55
2022/09/28 02:28:25;;;;;;;5.40;1.50;;;9.80;99.90;;;;;;5031252;28;20186;-56
2022/09/28 02:30:51;;;;;;;4.82;1.80;;;9.80;99.90;;;;;;5034947;28;20252;-55
2022/09/28 02:33:23;;;;;;;3.85;1.58;;;9.80;99.90;;;;;;5036088;28;20243;-54
2022/09/28 02:35:50;;;;;;;8.23;1.70;;;9.80;99.90;;;;;;5039463;28;20183;-55
2022/09/28 02:38:17;;;;;;;4.63;1.70;;;9.70;99.90;;;;;;5032824;28;20190;-55
2022/09/28 02:40:53;;;;;;;4.75;1.75;;;9.70;99.90;;;;;;5051669;28;20186;-54
2022/09/28 02:43:27;;;;;;;5.68;1.67;;;9.70;99.90;;;;;;5048541;28;20515;-54
2022/09/28 02:46:31;;;;;;;11.52;1.73;;;9.60;99.90;;;;;;5048574;28;20192;-57
2022/09/28 02:49:22;;;;;;;8.85;1.20;;;9.60;99.90;;;;;;5034817;28;20206;-56
2022/09/28 02:52:05;;;;;;;4.93;1.30;;;9.60;99.90;;;;;;5035085;28;20229;-55
2022/09/28 02:55:03;;;;;;;9.32;1.35;;;9.60;99.90;;;;;;5053459;28;20584;-54
2022/09/28 02:57:48;;;;;;;2.97;1.15;;;9.60;99.90;;;;;;5040247;28;20186;-56
2022/09/28 03:00:18;;;;;;;9.77;1.40;;;9.60;99.90;;;;;;5049636;28;20167;-56
2022/09/28 03:02:52;;;;;;;2.75;1.05;;;9.60;99.90;;;;;;5052919;28;20215;-55
2022/09/28 03:05:24;;;;;;;4.43;1.20;;;9.60;99.90;;;;;;5052928;28;20735;-55
2022/09/28 03:08:05;;;;;;;4.38;1.23;;;9.60;99.90;;;;;;5035260;28;20603;-55
2022/09/28 03:10:43;;;;;;;4.85;1.10;;;9.60;99.90;;;;;;5031918;28;20241;-57
2022/09/28 03:13:11;;;;;;;3.55;1.30;;;9.70;99.90;;;;;;5035431;28;20190;-56
2022/09/28 03:15:37;;;;;;;5.57;1.38;;;9.70;99.90;;;;;;5035042;28;20175;-56
2022/09/28 03:18:03;;;;;;;9.05;1.30;;;9.70;99.90;;;;;;5036610;28;20187;-56
2022/09/28 03:20:30;;;;;;;2.22;1.20;;;9.70;99.90;;;;;;5039097;28;20198;-55
2022/09/28 03:22:56;;;;;;;3.97;1.40;;;9.70;99.90;;;;;;5056678;28;20174;-56
2022/09/28 03:25:23;;;;;;;2.47;1.35;;;9.70;99.90;;;;;;5038304;28;20179;-56
2022/09/28 03:27:49;;;;;;;6.13;1.40;;;9.70;99.90;;;;;;5052874;28;20183;-54
2022/09/28 03:30:15;;;;;;;3.10;1.45;;;9.70;99.90;;;;;;5021776;28;20208;-54
2022/09/28 03:32:43;;;;;;;6.70;1.38;;;9.70;99.90;;;;;;5037239;28;20699;-53
2022/09/28 03:35:10;;;;;;;6.90;1.45;;;9.60;99.90;;;;;;5038677;28;20183;-56
2022/09/28 03:37:36;;;;;;;8.27;1.42;;;9.60;99.90;;;;;;5038315;28;20266;-58
2022/09/28 03:40:03;;;;;;;5.70;1.58;;;9.60;99.90;;;;;;5038925;28;20640;-51
2022/09/28 03:42:29;;;;;;;9.30;1.77;;;9.60;99.90;;;;;;5021114;28;20187;-54
2022/09/28 03:44:55;;;;;;;7.90;1.50;;;9.60;99.90;;;;;;5032365;28;20653;-52
2022/09/28 03:47:22;;;;;;;13.02;1.40;;;9.60;99.90;;;;;;5046155;28;20196;-55
2022/09/28 03:49:47;;;;;;;8.80;1.10;;;9.60;99.90;;;;;;5038588;28;20211;-55
2022/09/28 03:52:14;;;;;;;5.88;1.63;;;9.60;99.90;;;;;;5021077;28;20193;-54
2022/09/28 03:54:40;;;;;;;8.18;1.48;;;9.70;99.90;;;;;;5027116;28;20176;-59
2022/09/28 03:57:05;;;;;;;4.53;1.13;;;9.60;99.90;;;;;;5029035;28;20191;-59
2022/09/28 03:59:31;;;;;;;3.35;1.10;;;9.70;99.90;;;;;;5038544;28;20190;-58
2022/09/28 04:01:57;;;;;;;5.53;1.48;;;9.60;99.90;;;;;;5053110;28;20216;-59
2022/09/28 04:04:23;;;;;;;5.80;0.90;;;9.60;99.90;;;;;;5036712;28;20240;-58
2022/09/28 04:06:48;;;;;;;7.15;1.10;;;9.60;99.90;;;;;;5036833;28;20187;-58
2022/09/28 04:09:15;;;;;;;4.85;1.33;;;9.50;99.90;;;;;;5038242;28;20195;-58
2022/09/28 04:11:42;;;;;;;5.78;1.13;;;9.50;99.90;;;;;;5037628;28;20199;-58
2022/09/28 04:14:08;;;;;;;5.78;1.90;;;9.50;99.90;;;;;;5038102;28;20191;-58
2022/09/28 04:16:34;;;;;;;7.43;3.17;;;9.50;99.90;;;;;;5036720;28;20183;-57
2022/09/28 04:19:07;;;;;;;5.10;1.98;;;9.50;99.90;;;;;;5037897;28;20171;-57
2022/09/28 04:21:32;;;;;;;8.57;1.70;;;9.50;99.90;;;;;;5037522;28;20256;-54
2022/09/28 04:24:07;;;;;;;5.75;1.50;;;9.50;99.90;;;;;;5023040;28;20206;-55
2022/09/28 04:26:34;;;;;;;5.75;1.27;;;9.50;99.90;;;;;;5036057;28;20218;-56
2022/09/28 04:29:16;;;;;;;5.20;1.90;;;9.50;99.90;;;;;;5017981;28;20183;-55
2022/09/28 04:32:04;;;;;;;4.88;2.60;;;9.50;99.90;;;;;;5034426;28;20286;-56
2022/09/28 04:34:35;;;;;;;10.88;3.05;;;9.40;99.90;;;;;;5053310;28;20182;-56
2022/09/28 04:37:01;;;;;;;9.45;3.30;;;9.50;99.90;;;;;;5050287;28;20188;-56
2022/09/28 04:39:27;;;;;;;7.65;2.95;;;9.40;99.90;;;;;;5031260;28;20552;-56
2022/09/28 04:41:54;;;;;;;9.18;3.17;;;9.40;99.90;;;;;;5036030;28;20187;-55
2022/09/28 04:44:20;;;;;;;12.07;3.30;;;9.40;99.90;;;;;;5040651;28;20187;-54
2022/09/28 04:46:48;;;;;;;7.75;2.50;;;9.40;99.90;;;;;;5018319;28;20269;-58
2022/09/28 04:49:28;;;;;;;8.18;2.40;;;9.40;99.90;;;;;;5052124;28;20175;-55
2022/09/28 04:52:04;;;;;;;8.25;2.30;;;9.40;99.90;;;;;;5040745;28;20511;-56
2022/09/28 04:54:30;;;;;;;6.35;2.20;;;9.40;99.90;;;;;;5019005;28;20171;-58
2022/09/28 04:56:56;;;;;;;4.68;1.45;;;9.30;99.90;;;;;;5046847;28;20194;-53
2022/09/28 04:59:22;;;;;;;5.82;1.20;;;9.30;99.90;;;;;;5037224;28;20647;-57
2022/09/28 05:01:48;;;;;;;10.05;1.50;;;9.20;99.90;;;;;;5035961;28;20183;-53
2022/09/28 05:04:32;;;;;;;5.10;1.35;;;9.30;99.90;;;;;;5049779;28;20643;-55
2022/09/28 05:07:26;;;;;;;4.55;1.25;;;9.30;99.90;;;;;;5042232;28;20195;-57
2022/09/28 05:09:52;;;;;;;5.00;1.23;;;9.30;99.90;;;;;;5049208;28;20222;-56
2022/09/28 05:12:17;;;;;;;5.13;1.77;;;9.30;99.90;;;;;;5037031;28;20241;-55
2022/09/28 05:14:43;;;;;;;6.72;1.50;;;9.30;99.90;;;;;;5036670;28;20207;-56
2022/09/28 05:17:09;;;;;;;7.35;1.67;;;9.30;99.90;;;;;;5030699;28;20226;-56
2022/09/28 05:19:54;;;;;;;4.30;1.60;;;9.30;99.90;;;;;;5018044;28;20195;-57
2022/09/28 05:22:20;;;;;;;2.80;1.50;;;9.30;99.90;;;;;;5038194;28;20187;-56
2022/09/28 05:24:46;;;;;;;4.75;1.55;;;9.30;99.90;;;;;;5019595;28;20183;-55
2022/09/28 05:27:12;;;;;;;5.30;1.83;;;9.30;99.90;;;;;;5050532;28;20583;-60
2022/09/28 05:29:38;;;;;;;5.55;2.10;;;9.30;99.90;;;;;;5023455;28;20290;-56
2022/09/28 05:32:40;;;;;;;7.43;2.17;;;9.30;99.90;;;;;;5000462;28;20239;-59
2022/09/28 05:35:39;;;;;;;3.78;1.75;;;9.30;99.90;;;;;;5035084;28;20258;-60
2022/09/28 05:38:05;;;;;;;10.93;2.40;;;9.30;99.90;;;;;;5033675;28;20278;-59
2022/09/28 05:40:32;;;;;;;6.38;2.35;;;9.30;99.90;;;;;;5030869;28;20674;-59
2022/09/28 05:42:59;;;;;;;4.28;2.38;;;9.40;99.90;;;;;;5033260;28;20183;-57
2022/09/28 05:45:26;;;;;;;9.18;3.17;;;9.30;99.90;;;;;;5038159;28;20183;-62
2022/09/28 05:47:52;;;;;;;8.35;3.22;;;9.30;99.90;;;;;;5045395;28;20184;-58
2022/09/28 05:50:20;;;;;;;12.27;3.38;;;9.30;99.90;;;;;;5017061;28;20302;-55
2022/09/28 05:52:46;;;;;;;12.32;4.05;;;9.30;99.90;;;;;;5034294;28;20191;-56
2022/09/28 05:55:12;;;;;;;11.63;4.85;;;9.30;99.90;;;;;;5014201;28;20546;-58
2022/09/28 05:57:40;;;;;;;9.95;3.80;;;9.40;99.90;;;;;;5014455;28;20180;-57
2022/09/28 06:00:08;;;;;;;7.03;3.10;;;9.40;99.90;;;;;;5046012;28;20188;-59
2022/09/28 06:02:38;;;;;;;7.18;2.60;;;9.40;99.90;;;;;;5041596;28;20659;-56
2022/09/28 06:05:05;;;;;;;8.57;2.97;;;9.50;99.90;;;;;;5049869;28;20183;-56
2022/09/28 06:07:32;;;;;;;10.07;2.97;;;9.50;99.90;;;;;;5018195;28;20191;-57
2022/09/28 06:09:58;;;;;;;13.10;4.97;;;9.40;99.90;;;;;;5027586;28;20207;-54
2022/09/28 06:12:46;;;;;;;9.30;3.05;;;9.40;99.90;;;;;;5043241;28;20213;-58
2022/09/28 06:15:16;;;;;;;10.65;3.53;;;9.40;99.90;;;;;;5034658;28;20631;-57
2022/09/28 06:17:43;;;;;;;16.17;2.90;;;9.50;99.90;;;;;;5048521;28;20274;-58
2022/09/28 06:20:36;;;;;;;6.95;2.70;;;9.50;99.90;;;;;;5034431;28;20603;-58
2022/09/28 06:23:09;;;;;;;12.70;3.47;;;9.40;99.90;;;;;;5053484;28;20266;-57
2022/09/28 06:25:35;;;;;;;6.13;3.35;;;9.50;99.90;;;;;;5042862;28;20654;-52
2022/09/28 06:28:13;;;;;;;6.22;2.83;;;9.50;99.90;;;;;;5016869;28;20187;-53
2022/09/28 06:30:41;;;;;;;5.40;3.10;;;9.50;99.90;;;;;;5047902;28;20202;-52
2022/09/28 06:33:12;;;;;;;11.05;2.70;;;9.50;99.90;;;;;;5032563;28;20179;-53
2022/09/28 06:35:38;;;;;;;11.02;4.35;;;9.60;99.90;;;;;;5043075;28;20184;-53
2022/09/28 06:38:05;;;;;;;7.43;3.35;;;9.50;99.90;;;;;;5049274;28;20261;-61
2022/09/28 06:40:32;;;;;;;11.82;3.83;;;9.60;99.90;;;;;;5020507;28;20197;-56
2022/09/28 06:43:00;;;;;;;7.82;2.95;;;9.60;99.90;;;;;;5033298;28;20221;-52
2022/09/28 06:45:50;;;;;;;8.23;2.88;;;9.60;99.90;;;;;;5052415;28;20190;-58
2022/09/28 06:48:32;;;;;;;11.13;3.20;;;9.60;99.90;;;;;;5034574;28;20231;-62
2022/09/28 06:50:59;;;;;;;4.72;2.70;;;9.60;99.90;;;;;;5027270;28;20196;-57
2022/09/28 06:53:28;;;;;;;6.25;2.83;;;9.60;99.90;;;;;;5019270;28;20194;-58
2022/09/28 06:56:19;;;;;;;10.18;3.33;;;9.70;99.90;;;;;;5050312;28;20274;-57
2022/09/28 06:58:46;;;;;;;9.07;3.47;;;9.70;99.90;;;;;;5051988;28;20194;-56
2022/09/28 07:01:12;;;;;;;7.30;3.60;;;9.80;99.90;;;;;;5016098;28;20549;-56
2022/09/28 07:03:56;;;;;;;9.73;3.00;;;9.80;99.90;;;;;;5041942;28;20273;-56
2022/09/28 07:06:46;;;;;;;7.28;3.00;;;9.80;99.90;;;;;;5035968;28;20511;-58
2022/09/28 07:09:27;;;;;;;7.88;3.38;;;9.90;99.90;;;;;;5045672;28;20536;-56
2022/09/28 07:12:12;;;;;;;9.80;3.08;;;9.90;99.90;;;;;;5047498;28;20245;-60
2022/09/28 07:15:01;;;;;;;9.15;3.40;;;10.00;99.90;;;;;;5023628;28;20199;-56
2022/09/28 07:17:27;;;;;;;8.10;2.55;;;10.00;99.90;;;;;;5044399;28;20266;-55
2022/09/28 07:19:57;;;;;;;8.23;2.72;;;10.10;99.90;;;;;;5030213;28;20198;-58
2022/09/28 07:22:23;;;;;;;10.20;2.90;;;10.10;99.90;;;;;;5024698;28;20212;-56
2022/09/28 07:24:51;;;;;;;3.20;2.10;;;10.10;99.90;;;;;;5017745;28;20192;-59
2022/09/28 07:27:38;;;;;;;6.30;2.90;;;10.20;99.90;;;;;;5033681;28;20194;-57
2022/09/28 07:30:33;;;;;;;8.48;3.00;;;10.30;99.90;;;;;;5033273;28;20211;-57
2022/09/28 07:33:05;;;;;;;5.18;2.65;;;10.30;99.90;;;;;;5023105;28;20191;-58
2022/09/28 07:35:57;;;;;;;9.55;2.20;;;10.30;99.90;;;;;;5033581;28;20202;-57
2022/09/28 07:38:26;;;;;;;8.00;1.90;;;10.40;99.90;;;;;;5048048;28;20179;-61
2022/09/28 07:41:10;;;;;;;5.88;2.50;;;10.50;99.90;;;;;;5028648;28;20187;-56
2022/09/28 07:43:40;;;;;;;6.65;2.08;;;10.50;99.90;;;;;;5020987;28;20271;-57
2022/09/28 07:46:10;;;;;;;9.60;1.92;;;10.50;99.90;;;;;;5049660;28;20262;-56
2022/09/28 07:48:39;;;;;;;8.30;1.73;;;10.60;99.90;;;;;;5032394;28;20265;-58
2022/09/28 07:51:23;;;;;;;13.88;2.00;;;10.70;99.90;;;;;;5032439;28;20688;-59
2022/09/28 07:54:23;;;;;;;8.50;1.50;;;10.80;99.90;;;;;;5018894;28;20195;-60
2022/09/28 07:57:08;;;;;;;8.30;1.50;;;10.90;99.90;;;;;;5048557;28;20183;-57
2022/09/28 07:59:43;;;;;;;4.45;1.60;;;11.00;99.90;;;;;;5050895;28;20324;-58
2022/09/28 08:02:37;;;;;;;8.52;1.50;;;11.10;99.90;;;;;;5035894;28;20609;-56
2022/09/28 08:05:04;;;;;;;6.45;1.17;;;11.20;99.90;;;;;;5025022;28;20195;-57
2022/09/28 08:07:31;;;;;;;8.77;1.30;;;11.40;99.90;;;;;;5024357;28;20631;-58
2022/09/28 08:10:08;;;;;;;3.95;1.10;;;11.50;99.90;;;;;;5037080;28;20206;-58
2022/09/28 08:12:55;;;;;;;3.78;1.30;;;11.60;99.90;;;;;;5051987;28;20615;-58
2022/09/28 08:15:38;;;;;;;9.60;1.40;;;11.80;99.90;;;;;;5049507;28;20191;-58
2022/09/28 08:18:16;;;;;;;5.85;1.15;;;11.90;99.90;;;;;;5036041;28;20711;-56
2022/09/28 08:23:27;;;;;;;4.15;1.13;;;12.20;99.90;;;;;;5054222;28;20700;-58
2022/09/28 08:25:53;;;;;;;1.50;0.80;;;12.30;99.90;;;;;;5043647;28;20171;-58
2022/09/28 08:28:21;;;;;;;6.63;1.02;;;12.40;99.90;;;;;;5034129;28;20212;-60
2022/09/28 08:30:49;;;;;;;3.92;0.90;;;12.50;99.90;;;;;;5033890;28;20286;-56
2022/09/28 08:33:20;;;;;;;4.53;0.80;;;12.60;99.90;;;;;;5035588;28;20203;-58
2022/09/28 08:35:47;;;;;;;8.38;1.25;;;12.70;99.90;;;;;;5054373;28;20192;-57
2022/09/28 08:38:20;;;;;;;5.28;0.90;;;12.90;99.90;;;;;;5023883;28;20703;-57
2022/09/28 08:41:42;;;;;;;5.47;1.00;;;13.00;99.90;;;;;;5052907;28;20206;-56
2022/09/28 08:44:25;;;;;;;6.15;0.90;;;13.10;99.90;;;;;;5054715;28;20240;-57
2022/09/28 08:50:30;;;;;;;3.35;0.50;;;13.10;99.90;;;;;;5029355;28;20300;-57
2022/09/28 08:53:12;;;;;;;3.83;0.60;;;13.00;99.90;;;;;;5020743;28;20183;-57
2022/09/28 08:56:02;;;;;;;3.30;0.70;;;12.90;99.90;;;;;;5035741;28;20171;-55
2022/09/28 08:58:34;;;;;;;1.85;0.60;;;12.90;99.90;;;;;;5053310;28;20206;-58
2022/09/28 09:01:05;;;;;;;1.27;0.50;;;12.80;99.90;;;;;;5045704;28;20230;-58
2022/09/28 09:03:38;;;;;;;1.92;0.57;;;12.80;99.90;;;;;;5033613;28;20733;-54
2022/09/28 09:06:35;;;;;;;1.40;0.52;;;12.80;99.90;;;;;;5046712;28;20221;-58
2022/09/28 09:09:46;;;;;;;1.08;0.70;;;12.80;99.90;;;;;;5053212;28;20245;-54
2022/09/28 09:12:59;;;;;;;1.73;0.73;;;12.90;99.90;;;;;;5052037;28;20195;-56
2022/09/28 09:15:47;;;;;;;3.25;0.70;;;13.00;99.90;;;;;;5033236;28;20187;-52
2022/09/28 09:18:51;;;;;;;5.82;0.82;;;13.10;99.90;;;;;;5033483;28;20238;-58
2022/09/28 09:22:26;;;;;;;1.50;0.60;;;13.10;99.90;;;;;;5031957;28;20179;-57
2022/09/28 09:25:20;;;;;;;3.13;0.80;;;13.20;99.90;;;;;;5012056;28;20195;-61
2022/09/28 09:28:23;;;;;;;3.75;0.82;;;13.30;99.90;;;;;;5041980;28;20206;-58
2022/09/28 09:31:11;;;;;;;1.27;0.60;;;13.30;99.90;;;;;;5038374;28;20256;-53
2022/09/28 09:34:11;;;;;;;1.40;0.50;;;13.20;99.90;;;;;;5055234;28;20187;-56
2022/09/28 09:36:49;;;;;;;1.75;0.57;;;13.20;99.90;;;;;;5045964;28;20195;-57
2022/09/28 09:39:57;;;;;;;2.50;0.60;;;13.10;99.90;;;;;;5036894;28;20269;-61
2022/09/28 09:43:07;;;;;;;2.05;0.60;;;13.10;99.90;;;;;;5040440;28;20631;-61
2022/09/28 09:46:17;;;;;;;4.05;0.70;;;13.10;99.90;;;;;;5029385;28;20214;-58
2022/09/28 09:49:10;;;;;;;1.42;0.52;;;13.10;99.90;;;;;;5049670;28;20189;-57
2022/09/28 09:51:50;;;;;;;4.78;0.85;;;13.20;99.90;;;;;;5033777;28;20206;-52
2022/09/28 09:54:29;;;;;;;5.88;0.70;;;13.30;99.90;;;;;;5039663;28;20709;-56
2022/09/28 09:57:11;;;;;;;3.70;0.85;;;13.30;99.90;;;;;;5033132;28;20232;-57
2022/09/28 10:00:01;;;;;;;1.60;0.68;;;13.30;99.90;;;;;;5034784;28;20179;-56
2022/09/28 10:02:47;;;;;;;1.60;0.60;;;13.40;99.90;;;;;;5041455;28;20233;-58
2022/09/28 10:05:35;;;;;;;3.38;1.05;;;13.50;99.90;;;;;;5033113;28;20188;-56
2022/09/28 10:08:09;;;;;;;5.32;0.82;;;13.60;99.90;;;;;;5043062;28;20519;-58
2022/09/28 10:11:15;;;;;;;2.50;0.63;;;13.70;99.90;;;;;;5028847;28;20245;-57
2022/09/28 10:13:48;;;;;;;5.45;0.70;;;13.80;99.90;;;;;;5033181;28;20202;-55
2022/09/28 10:16:35;;;;;;;6.63;0.70;;;13.90;99.90;;;;;;5045136;28;20188;-58
2022/09/28 10:19:09;;;;;;;2.97;0.73;;;14.10;99.90;;;;;;5032886;28;20194;-56
2022/09/28 10:21:53;;;;;;;1.80;0.50;;;14.20;99.90;;;;;;5020878;28;20218;-56
2022/09/28 10:24:45;;;;;;;2.83;0.60;;;14.30;99.90;;;;;;5023479;28;20191;-56
2022/09/28 10:27:17;;;;;;;4.03;0.70;;;14.50;99.90;;;;;;5034033;28;20344;-56
2022/09/28 10:29:51;;;;;;;5.97;0.70;;;14.60;99.90;;;;;;5031455;28;20340;-57
2022/09/28 10:32:20;;;;;;;2.55;0.80;;;14.80;99.90;;;;;;5033749;28;20218;-57
2022/09/28 10:34:46;;;;;;;0.70;0.43;;;14.90;99.90;;;;;;5026355;28;20541;-60
2022/09/28 10:37:16;;;;;;;4.40;0.70;;;15.00;99.90;;;;;;5018060;28;20175;-57
2022/09/28 10:40:42;;;;;;;1.38;0.80;;;15.00;99.90;;;;;;5023136;28;20278;-57
2022/09/28 10:43:21;;;;;;;1.08;0.45;;;15.00;99.90;;;;;;5032303;28;20184;-55
2022/09/28 10:45:51;;;;;;;2.72;0.60;;;14.90;99.90;;;;;;5032258;28;20542;-55
2022/09/28 10:48:21;;;;;;;1.98;0.60;;;14.90;99.90;;;;;;5018941;28;21037;-57
2022/09/28 10:51:04;;;;;;;1.35;0.50;;;14.80;99.90;;;;;;5040133;28;20249;-57
2022/09/28 10:53:31;;;;;;;2.03;0.43;;;14.80;99.90;;;;;;5040249;28;20214;-57
2022/09/28 10:56:21;;;;;;;1.88;0.60;;;14.80;99.90;;;;;;5029862;28;20213;-57
2022/09/28 10:58:51;;;;;;;1.58;0.43;;;14.90;99.90;;;;;;5051942;28;20194;-56
2022/09/28 11:01:29;;;;;;;1.85;0.70;;;15.00;99.90;;;;;;5034097;28;20191;-58
2022/09/28 11:03:59;;;;;;;1.65;1.23;;;15.10;99.90;;;;;;5023719;28;20220;-58
2022/09/28 11:06:30;;;;;;;1.42;0.60;;;15.20;99.90;;;;;;5021678;28;20682;-57
2022/09/28 11:09:02;;;;;;;3.00;0.60;;;15.40;99.90;;;;;;5013183;28;20263;-57
2022/09/28 11:11:30;;;;;;;1.58;0.60;;;15.60;99.90;;;;;;5008765;28;20283;-58
2022/09/28 11:14:03;;;;;;;2.53;0.60;;;15.80;99.90;;;;;;4994100;28;20195;-58
2022/09/28 11:16:35;;;;;;;2.95;0.45;;;15.80;99.90;;;;;;5006268;28;20188;-58
2022/09/28 11:19:24;;;;;;;1.27;0.50;;;15.90;99.90;;;;;;5008378;28;20188;-58
2022/09/28 11:21:50;;;;;;;1.70;0.40;;;15.90;99.90;;;;;;5021585;28;20598;-58
2022/09/28 11:24:19;;;;;;;1.33;0.50;;;16.00;99.90;;;;;;5005026;28;20243;-58
2022/09/28 11:26:49;;;;;;;3.35;0.57;;;16.00;99.90;;;;;;5015420;28;20200;-58
2022/09/28 11:29:50;;;;;;;2.50;0.40;;;16.10;99.90;;;;;;4994578;28;20207;-59
2022/09/28 11:32:17;;;;;;;2.67;0.50;;;16.30;99.90;;;;;;5024758;28;20193;-57
2022/09/28 11:35:02;;;;;;;1.50;0.60;;;16.40;99.90;;;;;;5006197;28;20698;-56
2022/09/28 11:37:31;;;;;;;2.45;0.45;;;16.50;99.90;;;;;;5010300;28;20216;-56
2022/09/28 11:40:12;;;;;;;2.25;0.40;;;16.60;99.90;;;;;;5010297;28;20184;-62
2022/09/28 11:43:04;;;;;;;0.52;0.40;;;16.70;99.90;;;;;;5021279;28;20207;-58
2022/09/28 11:45:46;;;;;;;0.85;0.40;;;16.80;99.90;;;;;;5037672;28;20714;-57
2022/09/28 11:48:17;;;;;;;2.13;0.60;;;16.80;99.90;;;;;;5020877;28;20176;-58
2022/09/28 11:50:48;;;;;;;3.65;0.70;;;16.80;99.90;;;;;;5029494;28;20204;-59
2022/09/28 11:53:29;;;;;;;3.25;0.68;;;16.90;99.90;;;;;;4999489;28;20233;-58
2022/09/28 11:56:22;;;;;;;4.10;0.65;;;16.90;99.90;;;;;;5012445;28;20181;-58
2022/09/28 11:59:14;;;;;;;0.75;0.40;;;16.90;99.90;;;;;;5012903;28;20593;-62
2022/09/28 12:01:51;;;;;;;0.80;0.50;;;16.90;99.90;;;;;;5002879;28;20192;-58
2022/09/28 12:04:37;;;;;;;1.55;0.40;;;17.00;99.90;;;;;;5010054;28;20203;-58
2022/09/28 12:07:27;;;;;;;3.60;0.60;;;17.10;99.90;;;;;;5022417;28;20182;-57
2022/09/28 12:10:18;;;;;;;3.80;0.50;;;17.10;99.90;;;;;;5011975;28;20209;-61
2022/09/28 12:12:55;;;;;;;1.92;0.98;;;17.20;99.90;;;;;;5012934;28;20184;-60
2022/09/28 12:15:27;;;;;;;1.98;0.68;;;17.40;99.90;;;;;;5028917;28;20188;-58
2022/09/28 12:18:02;;;;;;;4.20;1.00;;;17.50;99.90;;;;;;5006767;28;20271;-59
2022/09/28 12:21:09;;;;;;;1.58;0.63;;;17.50;99.90;;;;;;5005234;28;20183;-58
2022/09/28 12:23:39;;;;;;;1.67;0.40;;;17.60;99.90;;;;;;4996786;28;20192;-58
2022/09/28 12:26:23;;;;;;;2.15;0.50;;;17.70;99.90;;;;;;5007876;28;20181;-58
2022/09/28 12:28:52;;;;;;;0.40;0.40;;;17.80;99.90;;;;;;5008840;28;20341;-61
2022/09/28 12:31:32;;;;;;;2.05;0.50;;;17.90;99.50;;;;;;5011279;28;20300;-59
2022/09/28 12:33:58;;;;;;;3.90;0.43;;;17.80;99.00;;;;;;5011248;28;20293;-58
2022/09/28 12:36:57;;;;;;;2.03;0.80;;;17.70;99.00;;;;;;4990723;28;20177;-60
2022/09/28 12:39:32;;;;;;;7.32;0.50;;;17.60;98.20;;;;;;5011591;28;20558;-55
2022/09/28 12:42:27;;;;;;;1.15;0.50;;;17.50;98.80;;;;;;5009307;28;20184;-57
2022/09/28 12:45:26;;;;;;;4.05;0.60;;;17.50;99.30;;;;;;5018936;28;20194;-59
2022/09/28 12:48:26;;;;;;;2.17;0.40;;;17.50;99.10;;;;;;4994121;28;20217;-57
2022/09/28 12:51:16;;;;;;;0.43;0.30;;;17.50;98.70;;;;;;5002501;28;20204;-57
2022/09/28 12:54:04;;;;;;;2.28;0.70;;;17.50;98.70;;;;;;4995968;28;20177;-57
2022/09/28 12:56:36;;;;;;;4.05;0.80;;;17.60;98.70;;;;;;5008913;28;20192;-63
2022/09/28 12:59:07;;;;;;;2.97;0.70;;;17.80;98.50;;;;;;5008366;28;20180;-57
2022/09/28 13:01:45;;;;;;;2.55;0.80;;;17.80;98.00;;;;;;5012402;28;20238;-59
2022/09/28 13:04:17;;;;;;;2.22;0.70;;;17.90;97.80;;;;;;5053307;28;20298;-58
2022/09/28 13:07:08;;;;;;;5.32;0.85;;;18.00;97.50;;;;;;5044639;28;20320;-61
2022/09/28 13:09:53;;;;;;;4.88;0.90;;;18.10;96.80;;;;;;5036272;28;20259;-59
2022/09/28 13:12:47;;;;;;;0.95;0.65;;;18.00;96.70;;;;;;5052634;28;20187;-60
2022/09/28 13:15:30;;;;;;;2.60;0.63;;;17.80;96.30;;;;;;5038482;28;20206;-58
2022/09/28 13:18:00;;;;;;;3.38;1.40;;;17.40;97.20;;;;;;5035056;28;20228;-57
2022/09/28 13:20:41;;;;;;;8.05;3.30;;;17.00;97.50;;;;;;5060688;28;20179;-56
2022/09/28 13:23:32;;;;;;;5.88;1.88;;;16.70;98.00;;;;;;5047350;28;20188;-65
2022/09/28 13:26:16;;;;;;;9.40;1.55;;;16.40;98.80;;;;;;5058811;28;20574;-65
2022/09/28 13:28:44;;;;;;;3.53;1.33;;;16.10;99.60;;;;;;5056505;28;20207;-61
2022/09/28 13:31:11;;;;;;;6.95;1.40;;;15.80;99.90;;;;;;5049483;28;20238;-57
2022/09/28 13:33:43;;;;;;;1.58;0.85;;;15.70;99.90;;;;;;5016819;28;20199;-59
2022/09/28 13:36:27;;;;;;;2.42;0.80;;;15.50;99.90;;;;;;5037320;28;20639;-53
2022/09/28 13:39:00;;;;;;;2.42;0.70;;;15.40;99.90;;;;;;5026845;28;20206;-56
2022/09/28 13:41:39;;;;;;;3.40;0.68;;;15.30;99.90;;;;;;5026795;28;20198;-60
2022/09/28 13:44:19;;;;;;;1.17;0.65;;;15.30;99.90;;;;;;5054491;28;20213;-56